sensor_id;sensor_type;location;lat;lon;timestamp;P1;durP1;ratioP1;P2;durP2;ratioP2
19384;SDS011;9828;54.122;17.974;2023-05-29T00:04:01;12.70;;;6.07;;
19384;SDS011;9828;54.122;17.974;2023-05-29T00:09:22;10.60;;;6.20;;
19384;SDS011;9828;54.122;17.974;2023-05-29T00:14:44;11.40;;;6.72;;
19384;SDS011;9828;54.122;17.974;2023-05-29T00:20:06;20.30;;;10.57;;
19384;SDS011;9828;54.122;17.974;2023-05-29T00:25:32;19.10;;;9.95;;
19384;SDS011;9828;54.122;17.974;2023-05-29T00:30:54;12.70;;;7.03;;
19384;SDS011;9828;54.122;17.974;2023-05-29T00:36:16;13.18;;;6.13;;
19384;SDS011;9828;54.122;17.974;2023-05-29T00:41:38;9.60;;;6.13;;
19384;SDS011;9828;54.122;17.974;2023-05-29T00:47:00;12.65;;;6.43;;
19384;SDS011;9828;54.122;17.974;2023-05-29T00:52:21;13.57;;;5.97;;
19384;SDS011;9828;54.122;17.974;2023-05-29T00:57:44;9.38;;;4.78;;
19384;SDS011;9828;54.122;17.974;2023-05-29T01:03:07;11.70;;;4.95;;
19384;SDS011;9828;54.122;17.974;2023-05-29T01:08:29;9.63;;;4.88;;
19384;SDS011;9828;54.122;17.974;2023-05-29T01:13:51;8.50;;;4.07;;
19384;SDS011;9828;54.122;17.974;2023-05-29T01:19:37;8.90;;;4.40;;
19384;SDS011;9828;54.122;17.974;2023-05-29T01:30:44;8.25;;;3.63;;
19384;SDS011;9828;54.122;17.974;2023-05-29T01:36:08;7.25;;;3.35;;
19384;SDS011;9828;54.122;17.974;2023-05-29T01:41:31;8.35;;;4.05;;
19384;SDS011;9828;54.122;17.974;2023-05-29T01:46:54;6.05;;;3.40;;
19384;SDS011;9828;54.122;17.974;2023-05-29T01:52:16;8.30;;;3.05;;
19384;SDS011;9828;54.122;17.974;2023-05-29T01:57:38;8.80;;;4.13;;
19384;SDS011;9828;54.122;17.974;2023-05-29T02:03:00;5.72;;;3.78;;
19384;SDS011;9828;54.122;17.974;2023-05-29T02:08:23;8.35;;;3.67;;
19384;SDS011;9828;54.122;17.974;2023-05-29T02:13:44;5.90;;;3.13;;
19384;SDS011;9828;54.122;17.974;2023-05-29T02:19:06;7.50;;;3.80;;
19384;SDS011;9828;54.122;17.974;2023-05-29T02:24:28;11.23;;;4.60;;
19384;SDS011;9828;54.122;17.974;2023-05-29T02:29:49;7.60;;;3.67;;
19384;SDS011;9828;54.122;17.974;2023-05-29T02:35:11;7.35;;;4.07;;
19384;SDS011;9828;54.122;17.974;2023-05-29T02:40:34;6.32;;;3.88;;
19384;SDS011;9828;54.122;17.974;2023-05-29T02:45:55;9.85;;;4.47;;
19384;SDS011;9828;54.122;17.974;2023-05-29T02:51:17;10.93;;;3.90;;
19384;SDS011;9828;54.122;17.974;2023-05-29T02:56:38;10.93;;;4.45;;
19384;SDS011;9828;54.122;17.974;2023-05-29T03:02:00;9.00;;;3.92;;
19384;SDS011;9828;54.122;17.974;2023-05-29T03:07:22;9.82;;;4.25;;
19384;SDS011;9828;54.122;17.974;2023-05-29T03:12:44;10.02;;;4.85;;
19384;SDS011;9828;54.122;17.974;2023-05-29T03:18:06;11.98;;;4.50;;
19384;SDS011;9828;54.122;17.974;2023-05-29T03:23:30;9.52;;;3.92;;
19384;SDS011;9828;54.122;17.974;2023-05-29T03:28:52;8.00;;;4.80;;
19384;SDS011;9828;54.122;17.974;2023-05-29T03:34:14;9.25;;;4.18;;
19384;SDS011;9828;54.122;17.974;2023-05-29T03:39:42;8.00;;;4.38;;
19384;SDS011;9828;54.122;17.974;2023-05-29T03:45:04;11.27;;;5.47;;
19384;SDS011;9828;54.122;17.974;2023-05-29T03:50:28;15.57;;;5.95;;
19384;SDS011;9828;54.122;17.974;2023-05-29T03:55:50;9.75;;;5.80;;
19384;SDS011;9828;54.122;17.974;2023-05-29T04:01:12;10.15;;;5.82;;
19384;SDS011;9828;54.122;17.974;2023-05-29T04:06:34;9.15;;;5.45;;
19384;SDS011;9828;54.122;17.974;2023-05-29T04:11:59;11.60;;;4.93;;
19384;SDS011;9828;54.122;17.974;2023-05-29T04:17:23;8.40;;;4.45;;
19384;SDS011;9828;54.122;17.974;2023-05-29T04:22:44;6.80;;;4.25;;
19384;SDS011;9828;54.122;17.974;2023-05-29T04:28:06;11.18;;;4.90;;
19384;SDS011;9828;54.122;17.974;2023-05-29T04:33:32;9.88;;;3.80;;
19384;SDS011;9828;54.122;17.974;2023-05-29T04:38:58;8.65;;;3.58;;
19384;SDS011;9828;54.122;17.974;2023-05-29T04:44:20;7.07;;;3.85;;
19384;SDS011;9828;54.122;17.974;2023-05-29T04:49:45;5.63;;;3.00;;
19384;SDS011;9828;54.122;17.974;2023-05-29T04:55:10;7.68;;;3.17;;
19384;SDS011;9828;54.122;17.974;2023-05-29T05:00:32;13.07;;;3.22;;
19384;SDS011;9828;54.122;17.974;2023-05-29T05:05:54;5.07;;;3.13;;
19384;SDS011;9828;54.122;17.974;2023-05-29T05:11:20;8.90;;;3.20;;
19384;SDS011;9828;54.122;17.974;2023-05-29T05:16:42;11.18;;;3.88;;
19384;SDS011;9828;54.122;17.974;2023-05-29T05:22:04;10.23;;;4.18;;
19384;SDS011;9828;54.122;17.974;2023-05-29T05:27:26;6.47;;;2.78;;
19384;SDS011;9828;54.122;17.974;2023-05-29T05:32:48;8.57;;;3.15;;
19384;SDS011;9828;54.122;17.974;2023-05-29T05:38:09;7.53;;;2.95;;
19384;SDS011;9828;54.122;17.974;2023-05-29T05:43:34;8.38;;;2.78;;
19384;SDS011;9828;54.122;17.974;2023-05-29T05:49:16;10.90;;;2.60;;
19384;SDS011;9828;54.122;17.974;2023-05-29T05:54:39;10.30;;;2.53;;
19384;SDS011;9828;54.122;17.974;2023-05-29T06:00:04;5.72;;;2.05;;
19384;SDS011;9828;54.122;17.974;2023-05-29T06:05:38;6.70;;;1.90;;
19384;SDS011;9828;54.122;17.974;2023-05-29T06:11:01;6.50;;;2.28;;
19384;SDS011;9828;54.122;17.974;2023-05-29T06:16:25;11.23;;;3.00;;
19384;SDS011;9828;54.122;17.974;2023-05-29T06:21:47;8.82;;;2.42;;
19384;SDS011;9828;54.122;17.974;2023-05-29T06:27:10;7.28;;;2.47;;
19384;SDS011;9828;54.122;17.974;2023-05-29T06:32:32;7.80;;;2.03;;
19384;SDS011;9828;54.122;17.974;2023-05-29T06:37:53;9.43;;;2.70;;
19384;SDS011;9828;54.122;17.974;2023-05-29T06:43:18;8.57;;;2.70;;
19384;SDS011;9828;54.122;17.974;2023-05-29T06:48:41;11.00;;;2.50;;
19384;SDS011;9828;54.122;17.974;2023-05-29T06:54:05;8.07;;;2.45;;
19384;SDS011;9828;54.122;17.974;2023-05-29T06:59:27;8.15;;;2.47;;
19384;SDS011;9828;54.122;17.974;2023-05-29T07:04:49;7.90;;;1.98;;
19384;SDS011;9828;54.122;17.974;2023-05-29T07:10:11;9.02;;;2.35;;
19384;SDS011;9828;54.122;17.974;2023-05-29T07:15:32;16.38;;;3.00;;
19384;SDS011;9828;54.122;17.974;2023-05-29T07:20:55;8.15;;;2.70;;
19384;SDS011;9828;54.122;17.974;2023-05-29T07:26:19;6.28;;;2.15;;
19384;SDS011;9828;54.122;17.974;2023-05-29T07:31:43;7.88;;;3.22;;
19384;SDS011;9828;54.122;17.974;2023-05-29T07:37:08;7.47;;;2.10;;
19384;SDS011;9828;54.122;17.974;2023-05-29T07:42:32;7.07;;;2.05;;
19384;SDS011;9828;54.122;17.974;2023-05-29T07:47:54;6.22;;;2.20;;
19384;SDS011;9828;54.122;17.974;2023-05-29T07:53:16;8.43;;;2.30;;
19384;SDS011;9828;54.122;17.974;2023-05-29T07:58:41;5.90;;;2.53;;
19384;SDS011;9828;54.122;17.974;2023-05-29T08:04:04;8.75;;;2.65;;
19384;SDS011;9828;54.122;17.974;2023-05-29T08:09:26;23.63;;;3.45;;
19384;SDS011;9828;54.122;17.974;2023-05-29T08:14:47;10.57;;;3.22;;
19384;SDS011;9828;54.122;17.974;2023-05-29T08:20:09;6.32;;;2.08;;
19384;SDS011;9828;54.122;17.974;2023-05-29T08:25:31;7.57;;;2.38;;
19384;SDS011;9828;54.122;17.974;2023-05-29T08:30:52;4.00;;;1.90;;
19384;SDS011;9828;54.122;17.974;2023-05-29T08:36:14;6.65;;;2.05;;
19384;SDS011;9828;54.122;17.974;2023-05-29T08:47:13;3.72;;;1.90;;
19384;SDS011;9828;54.122;17.974;2023-05-29T08:52:40;6.65;;;2.50;;
19384;SDS011;9828;54.122;17.974;2023-05-29T08:58:02;4.60;;;1.70;;
19384;SDS011;9828;54.122;17.974;2023-05-29T09:03:24;4.70;;;2.10;;
19384;SDS011;9828;54.122;17.974;2023-05-29T09:08:46;7.07;;;1.90;;
19384;SDS011;9828;54.122;17.974;2023-05-29T09:19:54;6.97;;;2.05;;
19384;SDS011;9828;54.122;17.974;2023-05-29T09:25:15;8.07;;;2.47;;
19384;SDS011;9828;54.122;17.974;2023-05-29T09:30:45;6.05;;;2.60;;
19384;SDS011;9828;54.122;17.974;2023-05-29T09:36:11;7.22;;;1.83;;
19384;SDS011;9828;54.122;17.974;2023-05-29T09:41:42;6.07;;;2.05;;
19384;SDS011;9828;54.122;17.974;2023-05-29T09:47:04;7.97;;;2.92;;
19384;SDS011;9828;54.122;17.974;2023-05-29T09:52:26;6.50;;;1.98;;
19384;SDS011;9828;54.122;17.974;2023-05-29T09:57:51;5.78;;;1.90;;
19384;SDS011;9828;54.122;17.974;2023-05-29T10:03:15;6.13;;;2.10;;
19384;SDS011;9828;54.122;17.974;2023-05-29T10:08:37;6.88;;;1.90;;
19384;SDS011;9828;54.122;17.974;2023-05-29T10:14:05;4.95;;;1.83;;
19384;SDS011;9828;54.122;17.974;2023-05-29T10:19:29;6.38;;;2.25;;
19384;SDS011;9828;54.122;17.974;2023-05-29T10:24:52;8.30;;;2.75;;
19384;SDS011;9828;54.122;17.974;2023-05-29T10:38:02;6.85;;;2.30;;
19384;SDS011;9828;54.122;17.974;2023-05-29T10:43:31;7.47;;;1.70;;
19384;SDS011;9828;54.122;17.974;2023-05-29T10:48:54;4.40;;;1.88;;
19384;SDS011;9828;54.122;17.974;2023-05-29T10:54:15;7.30;;;1.98;;
19384;SDS011;9828;54.122;17.974;2023-05-29T10:59:37;4.32;;;1.38;;
19384;SDS011;9828;54.122;17.974;2023-05-29T11:05:06;14.85;;;2.28;;
19384;SDS011;9828;54.122;17.974;2023-05-29T11:10:43;4.90;;;1.70;;
19384;SDS011;9828;54.122;17.974;2023-05-29T11:16:11;7.47;;;4.32;;
19384;SDS011;9828;54.122;17.974;2023-05-29T11:27:10;4.47;;;1.40;;
19384;SDS011;9828;54.122;17.974;2023-05-29T11:32:32;6.43;;;1.92;;
19384;SDS011;9828;54.122;17.974;2023-05-29T11:37:56;6.97;;;1.70;;
19384;SDS011;9828;54.122;17.974;2023-05-29T11:43:18;4.65;;;1.60;;
19384;SDS011;9828;54.122;17.974;2023-05-29T11:48:46;8.18;;;1.50;;
19384;SDS011;9828;54.122;17.974;2023-05-29T11:54:08;4.20;;;1.85;;
19384;SDS011;9828;54.122;17.974;2023-05-29T11:59:32;9.00;;;1.80;;
19384;SDS011;9828;54.122;17.974;2023-05-29T12:05:01;3.75;;;1.48;;
19384;SDS011;9828;54.122;17.974;2023-05-29T12:10:23;18.30;;;2.25;;
19384;SDS011;9828;54.122;17.974;2023-05-29T12:15:45;5.13;;;1.77;;
19384;SDS011;9828;54.122;17.974;2023-05-29T12:21:10;2.70;;;1.20;;
19384;SDS011;9828;54.122;17.974;2023-05-29T12:26:31;8.27;;;1.50;;
19384;SDS011;9828;54.122;17.974;2023-05-29T12:31:57;13.43;;;2.20;;
19384;SDS011;9828;54.122;17.974;2023-05-29T12:37:20;6.85;;;2.90;;
19384;SDS011;9828;54.122;17.974;2023-05-29T12:42:43;5.80;;;1.38;;
19384;SDS011;9828;54.122;17.974;2023-05-29T12:48:05;6.63;;;1.98;;
19384;SDS011;9828;54.122;17.974;2023-05-29T12:53:28;7.00;;;1.90;;
19384;SDS011;9828;54.122;17.974;2023-05-29T12:58:50;9.02;;;2.65;;
19384;SDS011;9828;54.122;17.974;2023-05-29T13:04:14;2.20;;;1.33;;
19384;SDS011;9828;54.122;17.974;2023-05-29T13:09:36;12.18;;;3.63;;
19384;SDS011;9828;54.122;17.974;2023-05-29T13:14:58;6.97;;;1.65;;
19384;SDS011;9828;54.122;17.974;2023-05-29T13:20:19;7.28;;;2.05;;
19384;SDS011;9828;54.122;17.974;2023-05-29T13:25:40;5.03;;;1.67;;
19384;SDS011;9828;54.122;17.974;2023-05-29T13:31:02;4.10;;;1.40;;
19384;SDS011;9828;54.122;17.974;2023-05-29T13:36:23;22.55;;;2.55;;
19384;SDS011;9828;54.122;17.974;2023-05-29T13:41:45;5.93;;;1.70;;
19384;SDS011;9828;54.122;17.974;2023-05-29T13:47:07;6.68;;;1.60;;
19384;SDS011;9828;54.122;17.974;2023-05-29T13:52:29;5.68;;;1.70;;
19384;SDS011;9828;54.122;17.974;2023-05-29T13:57:50;6.93;;;2.33;;
19384;SDS011;9828;54.122;17.974;2023-05-29T14:03:18;7.22;;;2.85;;
19384;SDS011;9828;54.122;17.974;2023-05-29T14:08:49;8.48;;;2.00;;
19384;SDS011;9828;54.122;17.974;2023-05-29T14:14:14;4.43;;;1.83;;
19384;SDS011;9828;54.122;17.974;2023-05-29T14:19:39;9.45;;;2.42;;
19384;SDS011;9828;54.122;17.974;2023-05-29T14:25:06;5.97;;;1.98;;
19384;SDS011;9828;54.122;17.974;2023-05-29T14:30:31;7.43;;;2.22;;
19384;SDS011;9828;54.122;17.974;2023-05-29T14:35:55;9.38;;;1.92;;
19384;SDS011;9828;54.122;17.974;2023-05-29T14:41:20;6.72;;;1.77;;
19384;SDS011;9828;54.122;17.974;2023-05-29T14:46:46;9.63;;;2.40;;
19384;SDS011;9828;54.122;17.974;2023-05-29T14:52:07;5.85;;;2.00;;
19384;SDS011;9828;54.122;17.974;2023-05-29T14:57:28;7.85;;;1.42;;
19384;SDS011;9828;54.122;17.974;2023-05-29T15:02:53;6.13;;;1.90;;
19384;SDS011;9828;54.122;17.974;2023-05-29T15:08:17;5.30;;;1.98;;
19384;SDS011;9828;54.122;17.974;2023-05-29T15:13:39;5.82;;;1.95;;
19384;SDS011;9828;54.122;17.974;2023-05-29T15:19:00;6.32;;;2.08;;
19384;SDS011;9828;54.122;17.974;2023-05-29T15:24:22;8.85;;;2.58;;
19384;SDS011;9828;54.122;17.974;2023-05-29T15:29:43;5.50;;;1.95;;
19384;SDS011;9828;54.122;17.974;2023-05-29T15:35:05;11.00;;;2.22;;
19384;SDS011;9828;54.122;17.974;2023-05-29T15:40:26;4.68;;;1.67;;
19384;SDS011;9828;54.122;17.974;2023-05-29T15:46:00;6.13;;;2.05;;
19384;SDS011;9828;54.122;17.974;2023-05-29T15:51:21;8.30;;;2.05;;
19384;SDS011;9828;54.122;17.974;2023-05-29T15:56:43;8.13;;;2.70;;
19384;SDS011;9828;54.122;17.974;2023-05-29T16:02:05;5.72;;;2.00;;
19384;SDS011;9828;54.122;17.974;2023-05-29T16:07:26;10.15;;;2.38;;
19384;SDS011;9828;54.122;17.974;2023-05-29T16:12:47;7.65;;;2.05;;
19384;SDS011;9828;54.122;17.974;2023-05-29T16:18:09;5.93;;;2.40;;
19384;SDS011;9828;54.122;17.974;2023-05-29T16:23:31;6.25;;;1.92;;
19384;SDS011;9828;54.122;17.974;2023-05-29T16:28:52;5.38;;;1.92;;
19384;SDS011;9828;54.122;17.974;2023-05-29T16:34:15;7.43;;;2.10;;
19384;SDS011;9828;54.122;17.974;2023-05-29T16:39:37;3.80;;;2.03;;
19384;SDS011;9828;54.122;17.974;2023-05-29T16:44:59;4.05;;;1.90;;
19384;SDS011;9828;54.122;17.974;2023-05-29T16:50:20;5.80;;;2.10;;
19384;SDS011;9828;54.122;17.974;2023-05-29T16:55:43;7.43;;;2.15;;
19384;SDS011;9828;54.122;17.974;2023-05-29T17:01:04;4.25;;;1.80;;
19384;SDS011;9828;54.122;17.974;2023-05-29T17:06:26;12.35;;;5.00;;
19384;SDS011;9828;54.122;17.974;2023-05-29T17:11:47;7.05;;;3.22;;
19384;SDS011;9828;54.122;17.974;2023-05-29T17:17:08;6.60;;;3.63;;
19384;SDS011;9828;54.122;17.974;2023-05-29T17:22:30;10.90;;;4.07;;
19384;SDS011;9828;54.122;17.974;2023-05-29T17:27:51;6.40;;;3.13;;
19384;SDS011;9828;54.122;17.974;2023-05-29T17:33:14;4.35;;;2.08;;
19384;SDS011;9828;54.122;17.974;2023-05-29T17:38:37;9.98;;;2.88;;
19384;SDS011;9828;54.122;17.974;2023-05-29T17:43:58;6.90;;;2.13;;
19384;SDS011;9828;54.122;17.974;2023-05-29T17:49:20;8.07;;;2.75;;
19384;SDS011;9828;54.122;17.974;2023-05-29T17:54:41;4.30;;;1.70;;
19384;SDS011;9828;54.122;17.974;2023-05-29T18:00:03;4.80;;;1.98;;
19384;SDS011;9828;54.122;17.974;2023-05-29T18:05:32;9.88;;;2.53;;
19384;SDS011;9828;54.122;17.974;2023-05-29T18:10:53;7.95;;;2.88;;
19384;SDS011;9828;54.122;17.974;2023-05-29T18:16:14;6.80;;;1.95;;
19384;SDS011;9828;54.122;17.974;2023-05-29T18:21:36;10.00;;;2.63;;
19384;SDS011;9828;54.122;17.974;2023-05-29T18:26:57;7.20;;;2.83;;
19384;SDS011;9828;54.122;17.974;2023-05-29T18:32:24;7.55;;;2.25;;
19384;SDS011;9828;54.122;17.974;2023-05-29T18:37:47;9.35;;;2.60;;
19384;SDS011;9828;54.122;17.974;2023-05-29T18:43:08;8.48;;;2.53;;
19384;SDS011;9828;54.122;17.974;2023-05-29T18:48:30;8.05;;;2.95;;
19384;SDS011;9828;54.122;17.974;2023-05-29T18:53:53;7.45;;;2.75;;
19384;SDS011;9828;54.122;17.974;2023-05-29T18:59:14;8.05;;;2.55;;
19384;SDS011;9828;54.122;17.974;2023-05-29T19:04:36;6.70;;;2.35;;
19384;SDS011;9828;54.122;17.974;2023-05-29T19:09:58;6.05;;;2.22;;
19384;SDS011;9828;54.122;17.974;2023-05-29T19:15:19;5.07;;;2.08;;
19384;SDS011;9828;54.122;17.974;2023-05-29T19:20:41;9.23;;;2.65;;
19384;SDS011;9828;54.122;17.974;2023-05-29T19:26:03;5.03;;;2.13;;
19384;SDS011;9828;54.122;17.974;2023-05-29T19:31:25;9.38;;;2.20;;
19384;SDS011;9828;54.122;17.974;2023-05-29T19:36:46;5.60;;;1.83;;
19384;SDS011;9828;54.122;17.974;2023-05-29T19:42:08;5.75;;;2.10;;
19384;SDS011;9828;54.122;17.974;2023-05-29T19:47:29;4.75;;;1.92;;
19384;SDS011;9828;54.122;17.974;2023-05-29T19:52:51;4.55;;;2.30;;
19384;SDS011;9828;54.122;17.974;2023-05-29T19:58:12;6.40;;;2.78;;
19384;SDS011;9828;54.122;17.974;2023-05-29T20:03:33;6.95;;;2.35;;
19384;SDS011;9828;54.122;17.974;2023-05-29T20:08:55;7.90;;;2.58;;
19384;SDS011;9828;54.122;17.974;2023-05-29T20:14:16;6.90;;;3.03;;
19384;SDS011;9828;54.122;17.974;2023-05-29T20:19:38;7.38;;;2.55;;
19384;SDS011;9828;54.122;17.974;2023-05-29T20:25:03;8.50;;;3.42;;
19384;SDS011;9828;54.122;17.974;2023-05-29T20:30:24;6.20;;;2.22;;
19384;SDS011;9828;54.122;17.974;2023-05-29T20:35:51;4.60;;;1.83;;
19384;SDS011;9828;54.122;17.974;2023-05-29T20:41:13;6.15;;;2.33;;
19384;SDS011;9828;54.122;17.974;2023-05-29T20:46:34;10.55;;;3.08;;
19384;SDS011;9828;54.122;17.974;2023-05-29T20:51:56;5.72;;;3.10;;
19384;SDS011;9828;54.122;17.974;2023-05-29T20:57:19;9.88;;;3.85;;
19384;SDS011;9828;54.122;17.974;2023-05-29T21:02:41;8.50;;;3.53;;
19384;SDS011;9828;54.122;17.974;2023-05-29T21:08:03;8.88;;;2.83;;
19384;SDS011;9828;54.122;17.974;2023-05-29T21:13:24;7.88;;;2.42;;
19384;SDS011;9828;54.122;17.974;2023-05-29T21:18:45;6.10;;;2.55;;
19384;SDS011;9828;54.122;17.974;2023-05-29T21:24:07;5.25;;;2.40;;
19384;SDS011;9828;54.122;17.974;2023-05-29T21:29:32;9.18;;;3.88;;
19384;SDS011;9828;54.122;17.974;2023-05-29T21:34:53;10.82;;;4.93;;
19384;SDS011;9828;54.122;17.974;2023-05-29T21:40:15;11.95;;;5.25;;
19384;SDS011;9828;54.122;17.974;2023-05-29T21:45:37;10.23;;;4.63;;
19384;SDS011;9828;54.122;17.974;2023-05-29T21:51:03;13.90;;;5.75;;
19384;SDS011;9828;54.122;17.974;2023-05-29T21:56:27;17.15;;;6.95;;
19384;SDS011;9828;54.122;17.974;2023-05-29T22:01:49;16.08;;;6.32;;
19384;SDS011;9828;54.122;17.974;2023-05-29T22:07:12;10.23;;;5.25;;
19384;SDS011;9828;54.122;17.974;2023-05-29T22:12:34;9.18;;;4.18;;
19384;SDS011;9828;54.122;17.974;2023-05-29T22:17:58;8.57;;;4.30;;
19384;SDS011;9828;54.122;17.974;2023-05-29T22:23:22;7.97;;;3.55;;
19384;SDS011;9828;54.122;17.974;2023-05-29T22:28:44;8.68;;;3.47;;
19384;SDS011;9828;54.122;17.974;2023-05-29T22:34:06;7.68;;;2.97;;
19384;SDS011;9828;54.122;17.974;2023-05-29T22:39:28;5.60;;;2.78;;
19384;SDS011;9828;54.122;17.974;2023-05-29T22:44:50;9.25;;;3.13;;
19384;SDS011;9828;54.122;17.974;2023-05-29T22:50:12;8.73;;;3.60;;
19384;SDS011;9828;54.122;17.974;2023-05-29T22:55:33;10.55;;;4.32;;
19384;SDS011;9828;54.122;17.974;2023-05-29T23:00:55;10.60;;;4.35;;
19384;SDS011;9828;54.122;17.974;2023-05-29T23:06:17;12.43;;;3.63;;
19384;SDS011;9828;54.122;17.974;2023-05-29T23:11:38;7.30;;;2.90;;
19384;SDS011;9828;54.122;17.974;2023-05-29T23:17:00;5.90;;;2.42;;
19384;SDS011;9828;54.122;17.974;2023-05-29T23:22:23;8.65;;;2.67;;
19384;SDS011;9828;54.122;17.974;2023-05-29T23:27:44;7.32;;;3.22;;
19384;SDS011;9828;54.122;17.974;2023-05-29T23:33:06;8.10;;;2.65;;
19384;SDS011;9828;54.122;17.974;2023-05-29T23:38:29;10.68;;;3.10;;
19384;SDS011;9828;54.122;17.974;2023-05-29T23:43:52;6.70;;;2.75;;
19384;SDS011;9828;54.122;17.974;2023-05-29T23:49:13;10.77;;;3.50;;
19384;SDS011;9828;54.122;17.974;2023-05-29T23:54:35;8.40;;;3.20;;
19384;SDS011;9828;54.122;17.974;2023-05-29T23:59:57;7.20;;;3.40;;
